createdAt,value
2022-10-08T00:00:30.960Z,99780.16
2022-10-08T00:10:55.234Z,99776.75
2022-10-08T00:15:58.346Z,99783.00
2022-10-08T00:21:17.439Z,99781.78
2022-10-08T00:26:23.745Z,99779.84
2022-10-08T00:31:32.044Z,99779.94
2022-10-08T00:37:25.992Z,99787.69
2022-10-08T00:42:28.353Z,99774.16
2022-10-08T00:47:33.401Z,99775.16
2022-10-08T00:52:42.450Z,99762.97
2022-10-08T00:57:50.293Z,99761.28
2022-10-08T01:02:54.127Z,99751.69
2022-10-08T01:08:04.892Z,99744.78
2022-10-08T01:13:16.042Z,99743.91
2022-10-08T01:18:22.545Z,99753.63
2022-10-08T01:23:30.769Z,99747.84
2022-10-08T01:28:35.490Z,99740.00
2022-10-08T01:33:41.231Z,99746.13
2022-10-08T01:38:46.564Z,99737.78
2022-10-08T01:43:51.995Z,99740.53
2022-10-08T01:49:02.930Z,99732.94
2022-10-08T01:54:11.063Z,99723.22
2022-10-08T01:59:13.332Z,99713.44
2022-10-08T02:04:35.941Z,99718.81
2022-10-08T02:09:39.994Z,99713.13
2022-10-08T02:14:47.526Z,99711.72
2022-10-08T02:20:00.330Z,99715.28
2022-10-08T02:25:10.334Z,99718.66
2022-10-08T02:30:13.270Z,99718.66
2022-10-08T02:35:19.454Z,99721.72
2022-10-08T02:40:22.977Z,99714.63
2022-10-08T02:45:29.340Z,99716.84
2022-10-08T02:50:36.274Z,99710.59
2022-10-08T02:55:41.383Z,99715.31
2022-10-08T03:00:57.626Z,99715.84
2022-10-08T03:06:03.133Z,99706.22
2022-10-08T03:11:08.425Z,99715.00
2022-10-08T03:16:14.465Z,99712.59
2022-10-08T03:21:19.314Z,99710.97
2022-10-08T03:26:28.736Z,99717.69
2022-10-08T03:31:31.076Z,99717.97
2022-10-08T03:36:33.364Z,99716.28
2022-10-08T03:41:35.583Z,99719.75
2022-10-08T03:46:38.553Z,99716.91
2022-10-08T03:51:41.702Z,99712.31
2022-10-08T03:56:46.836Z,99712.00
2022-10-08T04:01:52.777Z,99706.78
2022-10-08T04:06:55.541Z,99718.78
2022-10-08T04:11:57.842Z,99717.78
2022-10-08T04:17:02.412Z,99712.09
2022-10-08T04:22:06.808Z,99718.31
2022-10-08T04:27:11.443Z,99720.22
2022-10-08T04:32:14.701Z,99718.47
2022-10-08T04:37:17.018Z,99714.44
2022-10-08T04:42:21.606Z,99718.13
2022-10-08T04:47:23.917Z,99723.63
2022-10-08T04:52:29.787Z,99719.31
2022-10-08T04:57:32.087Z,99712.63
2022-10-08T05:02:35.220Z,99717.16
2022-10-08T05:07:38.586Z,99717.84
2022-10-08T05:12:41.645Z,99720.38
2022-10-08T05:17:44.013Z,99719.53
2022-10-08T05:22:47.911Z,99715.84
2022-10-08T05:27:50.322Z,99715.72
2022-10-08T05:32:55.751Z,99715.44
2022-10-08T05:37:58.009Z,99727.03
2022-10-08T05:43:00.375Z,99720.06
2022-10-08T05:48:02.729Z,99721.75
2022-10-08T05:53:09.094Z,99733.31
2022-10-08T05:58:11.635Z,99741.53
2022-10-08T06:08:32.159Z,99741.69
2022-10-08T06:13:39.990Z,99747.09
2022-10-08T06:18:43.226Z,99754.47
2022-10-08T06:23:49.494Z,99751.63
2022-10-08T06:28:54.008Z,99753.34
2022-10-08T06:34:10.996Z,99759.88
2022-10-08T06:39:14.842Z,99764.53
2022-10-08T06:44:19.355Z,99774.16
2022-10-08T06:49:26.665Z,99775.00
2022-10-08T06:54:31.361Z,99781.09
2022-10-08T06:59:33.801Z,99781.91
2022-10-08T07:04:37.349Z,99784.25
2022-10-08T07:09:39.584Z,99789.72
2022-10-08T07:14:41.941Z,99788.50
2022-10-08T07:19:44.171Z,99785.09
2022-10-08T07:24:48.507Z,99789.16
2022-10-08T07:29:50.776Z,99795.56
2022-10-08T07:34:59.289Z,99791.97
2022-10-08T07:40:04.392Z,99796.31
2022-10-08T07:45:09.762Z,99807.47
2022-10-08T07:50:11.988Z,99805.28
2022-10-08T07:55:22.046Z,99801.41
2022-10-08T08:00:26.369Z,99798.94
2022-10-08T08:05:34.724Z,99801.41
2022-10-08T08:10:37.014Z,99801.78
2022-10-08T08:15:39.310Z,99801.03
2022-10-08T08:20:44.677Z,99796.41
2022-10-08T08:25:54.498Z,99805.31
2022-10-08T08:31:09.561Z,99801.41
2022-10-08T08:36:11.824Z,99806.50
2022-10-08T08:41:37.310Z,99800.47
2022-10-08T08:46:42.043Z,99801.81
2022-10-08T08:51:44.457Z,99797.56
2022-10-08T08:56:48.054Z,99794.66
2022-10-08T09:01:54.248Z,99792.44
2022-10-08T09:07:03.320Z,99797.50
2022-10-08T09:12:27.099Z,99790.72
2022-10-08T09:18:01.786Z,99785.03
2022-10-08T09:23:10.567Z,99787.81
2022-10-08T09:28:34.855Z,99787.56
2022-10-08T09:33:45.197Z,99773.47
2022-10-08T09:38:57.493Z,99770.50
2022-10-08T09:44:27.233Z,99774.31
2022-10-08T09:49:31.283Z,99776.84
2022-10-08T09:54:35.791Z,99777.88
2022-10-08T09:59:41.702Z,99768.66
2022-10-08T10:04:45.957Z,99770.09
2022-10-08T10:09:51.050Z,99756.34
2022-10-08T10:14:56.611Z,99768.38
2022-10-08T10:26:24.145Z,99754.44
2022-10-08T10:31:33.242Z,99764.50
2022-10-08T10:36:39.160Z,99754.25
2022-10-08T10:41:59.691Z,99757.66
2022-10-08T10:47:03.287Z,99751.41
2022-10-08T10:52:33.909Z,99750.47
2022-10-08T10:57:55.961Z,99740.94
2022-10-08T11:03:35.269Z,99732.19
2022-10-08T11:08:47.936Z,99728.47
2022-10-08T11:14:05.652Z,99724.91
2022-10-08T11:19:19.972Z,99729.34
2022-10-08T11:24:40.340Z,99736.84
2022-10-08T11:29:46.153Z,99727.00
2022-10-08T11:34:57.176Z,99718.22
2022-10-08T11:40:02.270Z,99714.94
2022-10-08T11:45:23.416Z,99705.03
2022-10-08T11:50:25.895Z,99707.81
2022-10-08T11:55:33.457Z,99686.25
2022-10-08T12:00:37.108Z,99688.44
2022-10-08T12:05:50.292Z,99684.59
2022-10-08T12:10:53.789Z,99676.53
2022-10-08T12:15:57.455Z,99674.59
2022-10-08T12:21:23.405Z,99680.78
2022-10-08T12:26:28.582Z,99667.69
2022-10-08T12:31:39.554Z,99667.78
2022-10-08T12:36:49.943Z,99655.66
2022-10-08T12:42:04.166Z,99653.69
2022-10-08T12:47:15.706Z,99658.84
2022-10-08T12:52:28.014Z,99653.38
2022-10-08T12:57:34.658Z,99664.31
2022-10-08T13:02:43.111Z,99656.19
2022-10-08T13:07:50.606Z,99655.13
2022-10-08T13:13:03.923Z,99648.09
2022-10-08T13:18:18.266Z,99645.13
2022-10-08T13:23:33.095Z,99649.09
2022-10-08T13:28:59.482Z,99646.16
2022-10-08T13:34:06.247Z,99643.41
2022-10-08T13:39:19.016Z,99641.94
2022-10-08T13:44:23.470Z,99635.41
2022-10-08T13:49:29.202Z,99643.84
2022-10-08T13:54:32.448Z,99635.81
2022-10-08T13:59:41.765Z,99631.38
2022-10-08T14:04:46.926Z,99634.47
2022-10-08T14:09:51.886Z,99633.31
2022-10-08T14:15:01.352Z,99631.38
2022-10-08T14:20:03.793Z,99626.78
2022-10-08T14:25:18.314Z,99633.50
2022-10-08T14:30:20.624Z,99625.28
2022-10-08T14:35:24.728Z,99627.16
2022-10-08T14:40:28.991Z,99633.69
2022-10-08T14:45:33.454Z,99622.94
2022-10-08T14:50:50.406Z,99626.81
2022-10-08T14:56:11.690Z,99630.31
2022-10-08T15:01:17.595Z,99618.31
2022-10-08T15:06:26.668Z,99613.47
2022-10-08T15:11:28.994Z,99623.16
2022-10-08T15:16:32.410Z,99624.44
2022-10-08T15:21:42.187Z,99623.16
2022-10-08T15:26:44.541Z,99620.84
2022-10-08T15:31:57.814Z,99620.28
2022-10-08T15:37:00.547Z,99622.28
2022-10-08T15:42:08.687Z,99626.69
2022-10-08T15:47:13.267Z,99634.69
2022-10-08T15:52:18.352Z,99639.44
2022-10-08T15:57:21.803Z,99638.63
2022-10-08T16:02:24.521Z,99634.25
2022-10-08T16:07:28.142Z,99644.69
2022-10-08T16:12:34.533Z,99639.81
2022-10-08T16:17:36.884Z,99645.47
2022-10-08T16:22:39.358Z,99653.72
2022-10-08T16:27:41.782Z,99652.13
2022-10-08T16:32:44.737Z,99660.47
2022-10-08T16:37:47.309Z,99655.94
2022-10-08T16:42:50.671Z,99654.97
2022-10-08T16:47:54.591Z,99651.94
2022-10-08T16:52:56.960Z,99654.53
2022-10-08T16:58:05.080Z,99656.56
2022-10-08T17:03:08.419Z,99656.44
2022-10-08T17:08:10.658Z,99655.63
2022-10-08T17:13:19.344Z,99655.13
2022-10-08T17:18:24.651Z,99655.44
2022-10-08T17:23:36.134Z,99654.72
2022-10-08T17:28:44.495Z,99667.47
2022-10-08T17:33:50.497Z,99659.56
2022-10-08T17:38:56.672Z,99663.44
2022-10-08T17:44:00.405Z,99670.22
2022-10-08T17:49:04.316Z,99674.44
2022-10-08T17:54:12.896Z,99666.41
2022-10-08T17:59:18.337Z,99666.31
2022-10-08T18:04:24.164Z,99667.25
2022-10-08T18:09:26.375Z,99674.53
2022-10-08T18:14:28.610Z,99672.22
2022-10-08T18:19:32.673Z,99676.50
2022-10-08T18:24:35.028Z,99678.38
2022-10-08T18:29:39.562Z,99675.75
2022-10-08T18:34:42.756Z,99680.50
2022-10-08T18:39:45.738Z,99688.44
2022-10-08T18:44:48.052Z,99687.75
2022-10-08T18:49:53.010Z,99694.16
2022-10-08T18:54:56.340Z,99690.78
2022-10-08T18:59:58.682Z,99695.31
2022-10-08T19:05:03.316Z,99698.56
2022-10-08T19:10:05.766Z,99704.44
2022-10-08T19:15:09.650Z,99711.84
2022-10-08T19:20:12.739Z,99712.69
2022-10-08T19:25:18.335Z,99703.22
2022-10-08T19:30:25.243Z,99707.25
2022-10-08T19:35:30.116Z,99706.16
2022-10-08T19:40:35.319Z,99709.94
2022-10-08T19:45:40.613Z,99709.25
2022-10-08T19:50:42.925Z,99713.81
2022-10-08T19:55:45.265Z,99721.03
2022-10-08T20:00:57.330Z,99712.28
2022-10-08T20:06:07.454Z,99721.81
2022-10-08T20:11:21.968Z,99727.06
2022-10-08T20:16:30.140Z,99717.19
2022-10-08T20:21:39.872Z,99715.34
2022-10-08T20:26:42.768Z,99727.53
2022-10-08T20:31:46.699Z,99716.13
2022-10-08T20:36:50.888Z,99708.97
2022-10-08T20:41:54.031Z,99718.59
2022-10-08T20:46:56.329Z,99722.06
2022-10-08T20:52:01.491Z,99715.34
2022-10-08T20:57:03.893Z,99717.66
2022-10-08T21:02:07.901Z,99725.59
2022-10-08T21:07:13.052Z,99712.38
2022-10-08T21:12:16.344Z,99716.00
2022-10-08T21:17:19.812Z,99709.44
2022-10-08T21:22:22.185Z,99713.69
2022-10-08T21:27:24.471Z,99715.53
2022-10-08T21:32:26.667Z,99709.34
2022-10-08T21:37:30.912Z,99700.47
2022-10-08T21:42:33.848Z,99706.47
2022-10-08T21:47:36.169Z,99694.16
2022-10-08T21:52:38.445Z,99694.94
2022-10-08T21:57:43.181Z,99686.25
2022-10-08T22:02:46.954Z,99687.38
2022-10-08T22:07:49.637Z,99686.47
2022-10-08T22:12:52.027Z,99671.69
2022-10-08T22:17:57.758Z,99675.81
2022-10-08T22:23:00.158Z,99676.13
2022-10-08T22:28:03.312Z,99675.34
2022-10-08T22:33:09.108Z,99678.78
2022-10-08T22:38:11.940Z,99675.03
2022-10-08T22:43:15.298Z,99679.19
2022-10-08T22:48:19.778Z,99675.50
2022-10-08T22:53:22.070Z,99667.66
2022-10-08T22:58:24.438Z,99663.66
2022-10-08T23:03:32.063Z,99671.28
2022-10-08T23:08:36.429Z,99659.34
2022-10-08T23:13:48.778Z,99656.72
2022-10-08T23:18:55.060Z,99669.59
2022-10-08T23:23:57.484Z,99668.56
2022-10-08T23:29:00.377Z,99676.13
2022-10-08T23:39:31.582Z,99665.31
2022-10-08T23:44:35.227Z,99666.69
2022-10-08T23:49:46.127Z,99667.44
2022-10-08T23:55:03.319Z,99659.31
